sensor_id;sensor_type;location;lat;lon;timestamp;temperature;humidity
52275;DHT22;38228;50.940;4.024;2023-06-22T00:00:50;21.40;99.90
52275;DHT22;38228;50.940;4.024;2023-06-22T00:03:19;21.10;99.90
52275;DHT22;38228;50.940;4.024;2023-06-22T00:05:46;21.00;99.90
52275;DHT22;38228;50.940;4.024;2023-06-22T00:08:12;21.00;99.90
52275;DHT22;38228;50.940;4.024;2023-06-22T00:10:38;21.10;99.90
52275;DHT22;38228;50.940;4.024;2023-06-22T00:13:05;20.90;99.90
52275;DHT22;38228;50.940;4.024;2023-06-22T00:15:31;20.70;99.90
52275;DHT22;38228;50.940;4.024;2023-06-22T00:17:57;20.70;99.90
52275;DHT22;38228;50.940;4.024;2023-06-22T00:20:24;20.70;99.90
52275;DHT22;38228;50.940;4.024;2023-06-22T00:22:57;20.80;99.90
52275;DHT22;38228;50.940;4.024;2023-06-22T00:25:23;20.90;99.90
52275;DHT22;38228;50.940;4.024;2023-06-22T00:27:49;20.70;99.90
52275;DHT22;38228;50.940;4.024;2023-06-22T00:30:18;20.80;99.90
52275;DHT22;38228;50.940;4.024;2023-06-22T00:32:45;20.90;99.90
52275;DHT22;38228;50.940;4.024;2023-06-22T00:35:14;20.90;99.90
52275;DHT22;38228;50.940;4.024;2023-06-22T00:37:39;20.80;99.90
52275;DHT22;38228;50.940;4.024;2023-06-22T00:40:09;20.60;99.90
52275;DHT22;38228;50.940;4.024;2023-06-22T00:42:39;20.50;99.90
52275;DHT22;38228;50.940;4.024;2023-06-22T00:45:06;20.60;99.90
52275;DHT22;38228;50.940;4.024;2023-06-22T00:47:32;20.70;99.90
52275;DHT22;38228;50.940;4.024;2023-06-22T00:49:58;20.80;99.90
52275;DHT22;38228;50.940;4.024;2023-06-22T00:52:24;20.70;99.90
52275;DHT22;38228;50.940;4.024;2023-06-22T00:54:55;20.20;99.90
52275;DHT22;38228;50.940;4.024;2023-06-22T00:57:22;19.90;99.90
52275;DHT22;38228;50.940;4.024;2023-06-22T00:59:49;19.90;99.90
52275;DHT22;38228;50.940;4.024;2023-06-22T01:02:14;20.00;99.90
52275;DHT22;38228;50.940;4.024;2023-06-22T01:04:40;20.10;99.90
52275;DHT22;38228;50.940;4.024;2023-06-22T01:07:30;20.20;99.90
52275;DHT22;38228;50.940;4.024;2023-06-22T01:10:23;20.40;99.90
52275;DHT22;38228;50.940;4.024;2023-06-22T01:13:02;20.20;99.90
52275;DHT22;38228;50.940;4.024;2023-06-22T01:15:53;20.10;99.90
52275;DHT22;38228;50.940;4.024;2023-06-22T01:18:22;20.20;99.90
52275;DHT22;38228;50.940;4.024;2023-06-22T01:20:53;20.30;99.90
52275;DHT22;38228;50.940;4.024;2023-06-22T01:26:22;20.20;99.90
52275;DHT22;38228;50.940;4.024;2023-06-22T01:28:54;20.30;99.90
52275;DHT22;38228;50.940;4.024;2023-06-22T01:31:25;20.30;99.90
52275;DHT22;38228;50.940;4.024;2023-06-22T01:33:54;20.20;99.90
52275;DHT22;38228;50.940;4.024;2023-06-22T01:36:21;20.10;99.90
52275;DHT22;38228;50.940;4.024;2023-06-22T01:38:48;20.00;99.90
52275;DHT22;38228;50.940;4.024;2023-06-22T01:41:15;20.00;99.90
52275;DHT22;38228;50.940;4.024;2023-06-22T01:43:42;19.90;99.90
52275;DHT22;38228;50.940;4.024;2023-06-22T01:46:08;19.90;99.90
52275;DHT22;38228;50.940;4.024;2023-06-22T01:48:35;19.90;99.90
52275;DHT22;38228;50.940;4.024;2023-06-22T01:51:02;19.80;99.90
52275;DHT22;38228;50.940;4.024;2023-06-22T01:53:27;19.70;99.90
52275;DHT22;38228;50.940;4.024;2023-06-22T01:55:53;19.70;99.90
52275;DHT22;38228;50.940;4.024;2023-06-22T01:58:21;19.70;99.90
52275;DHT22;38228;50.940;4.024;2023-06-22T02:00:53;19.70;99.90
52275;DHT22;38228;50.940;4.024;2023-06-22T02:03:24;19.60;99.90
52275;DHT22;38228;50.940;4.024;2023-06-22T02:05:56;19.60;99.90
52275;DHT22;38228;50.940;4.024;2023-06-22T02:11:29;19.50;99.90
52275;DHT22;38228;50.940;4.024;2023-06-22T02:13:57;19.30;99.90
52275;DHT22;38228;50.940;4.024;2023-06-22T02:16:23;19.40;99.90
52275;DHT22;38228;50.940;4.024;2023-06-22T02:18:49;19.40;99.90
52275;DHT22;38228;50.940;4.024;2023-06-22T02:21:19;19.30;99.90
52275;DHT22;38228;50.940;4.024;2023-06-22T02:23:45;19.40;99.90
52275;DHT22;38228;50.940;4.024;2023-06-22T02:26:11;19.60;99.90
52275;DHT22;38228;50.940;4.024;2023-06-22T02:28:37;19.70;99.90
52275;DHT22;38228;50.940;4.024;2023-06-22T02:31:04;19.80;99.90
52275;DHT22;38228;50.940;4.024;2023-06-22T02:33:30;19.40;99.90
52275;DHT22;38228;50.940;4.024;2023-06-22T02:35:55;19.10;99.90
52275;DHT22;38228;50.940;4.024;2023-06-22T02:38:21;19.10;99.90
52275;DHT22;38228;50.940;4.024;2023-06-22T02:40:50;19.20;99.90
52275;DHT22;38228;50.940;4.024;2023-06-22T02:43:15;19.50;99.90
52275;DHT22;38228;50.940;4.024;2023-06-22T02:45:42;19.50;99.90
52275;DHT22;38228;50.940;4.024;2023-06-22T02:48:07;19.20;99.90
52275;DHT22;38228;50.940;4.024;2023-06-22T02:50:33;19.10;99.90
52275;DHT22;38228;50.940;4.024;2023-06-22T02:52:59;19.00;99.90
52275;DHT22;38228;50.940;4.024;2023-06-22T02:55:25;18.90;99.90
52275;DHT22;38228;50.940;4.024;2023-06-22T02:57:50;18.70;99.90
52275;DHT22;38228;50.940;4.024;2023-06-22T03:00:19;18.70;99.90
52275;DHT22;38228;50.940;4.024;2023-06-22T03:02:48;18.60;99.90
52275;DHT22;38228;50.940;4.024;2023-06-22T03:05:14;18.50;99.90
52275;DHT22;38228;50.940;4.024;2023-06-22T03:07:43;18.60;99.90
52275;DHT22;38228;50.940;4.024;2023-06-22T03:10:09;18.60;99.90
52275;DHT22;38228;50.940;4.024;2023-06-22T03:12:38;18.50;99.90
52275;DHT22;38228;50.940;4.024;2023-06-22T03:15:09;18.40;99.90
52275;DHT22;38228;50.940;4.024;2023-06-22T03:17:36;18.50;99.90
52275;DHT22;38228;50.940;4.024;2023-06-22T03:20:03;18.50;99.90
52275;DHT22;38228;50.940;4.024;2023-06-22T03:22:39;18.50;99.90
52275;DHT22;38228;50.940;4.024;2023-06-22T03:25:05;18.50;99.90
52275;DHT22;38228;50.940;4.024;2023-06-22T03:27:39;18.30;99.90
52275;DHT22;38228;50.940;4.024;2023-06-22T03:30:08;18.30;99.90
52275;DHT22;38228;50.940;4.024;2023-06-22T03:32:35;18.30;99.90
52275;DHT22;38228;50.940;4.024;2023-06-22T03:35:00;18.20;99.90
52275;DHT22;38228;50.940;4.024;2023-06-22T03:37:27;18.30;99.90
52275;DHT22;38228;50.940;4.024;2023-06-22T03:39:53;18.20;99.90
52275;DHT22;38228;50.940;4.024;2023-06-22T03:42:19;18.30;99.90
52275;DHT22;38228;50.940;4.024;2023-06-22T03:44:45;18.10;99.90
52275;DHT22;38228;50.940;4.024;2023-06-22T03:47:10;18.20;99.90
52275;DHT22;38228;50.940;4.024;2023-06-22T03:49:36;18.10;99.90
52275;DHT22;38228;50.940;4.024;2023-06-22T03:52:02;18.20;99.90
52275;DHT22;38228;50.940;4.024;2023-06-22T03:54:29;18.30;99.90
52275;DHT22;38228;50.940;4.024;2023-06-22T03:56:56;18.50;99.90
52275;DHT22;38228;50.940;4.024;2023-06-22T03:59:22;18.40;99.90
52275;DHT22;38228;50.940;4.024;2023-06-22T04:01:48;18.40;99.90
52275;DHT22;38228;50.940;4.024;2023-06-22T04:04:14;18.50;99.90
52275;DHT22;38228;50.940;4.024;2023-06-22T04:06:39;18.80;99.90
52275;DHT22;38228;50.940;4.024;2023-06-22T04:09:08;18.90;99.90
52275;DHT22;38228;50.940;4.024;2023-06-22T04:11:33;19.10;99.90
52275;DHT22;38228;50.940;4.024;2023-06-22T04:13:59;19.20;99.90
52275;DHT22;38228;50.940;4.024;2023-06-22T04:16:25;19.10;99.90
52275;DHT22;38228;50.940;4.024;2023-06-22T04:18:51;18.90;99.90
52275;DHT22;38228;50.940;4.024;2023-06-22T04:21:17;18.70;99.90
52275;DHT22;38228;50.940;4.024;2023-06-22T04:23:42;18.70;99.90
52275;DHT22;38228;50.940;4.024;2023-06-22T04:26:09;18.70;99.90
52275;DHT22;38228;50.940;4.024;2023-06-22T04:28:34;18.70;99.90
52275;DHT22;38228;50.940;4.024;2023-06-22T04:31:01;18.80;99.90
52275;DHT22;38228;50.940;4.024;2023-06-22T04:33:28;18.60;99.90
52275;DHT22;38228;50.940;4.024;2023-06-22T04:35:55;18.70;99.90
52275;DHT22;38228;50.940;4.024;2023-06-22T04:38:23;18.70;99.90
52275;DHT22;38228;50.940;4.024;2023-06-22T04:40:49;18.70;99.90
52275;DHT22;38228;50.940;4.024;2023-06-22T04:43:15;18.70;99.90
52275;DHT22;38228;50.940;4.024;2023-06-22T04:45:41;18.70;99.90
52275;DHT22;38228;50.940;4.024;2023-06-22T04:48:07;18.80;99.90
52275;DHT22;38228;50.940;4.024;2023-06-22T04:50:34;19.00;99.90
52275;DHT22;38228;50.940;4.024;2023-06-22T04:52:59;19.00;99.90
52275;DHT22;38228;50.940;4.024;2023-06-22T04:55:25;19.30;99.90
52275;DHT22;38228;50.940;4.024;2023-06-22T04:57:51;19.40;99.90
52275;DHT22;38228;50.940;4.024;2023-06-22T05:00:21;19.60;99.90
52275;DHT22;38228;50.940;4.024;2023-06-22T05:02:48;19.80;99.90
52275;DHT22;38228;50.940;4.024;2023-06-22T05:05:15;20.10;99.90
52275;DHT22;38228;50.940;4.024;2023-06-22T05:07:45;20.50;99.90
52275;DHT22;38228;50.940;4.024;2023-06-22T05:10:14;20.70;99.90
52275;DHT22;38228;50.940;4.024;2023-06-22T05:12:40;20.40;99.90
52275;DHT22;38228;50.940;4.024;2023-06-22T05:15:07;20.80;99.90
52275;DHT22;38228;50.940;4.024;2023-06-22T05:17:34;21.10;99.90
52275;DHT22;38228;50.940;4.024;2023-06-22T05:20:00;21.40;99.90
52275;DHT22;38228;50.940;4.024;2023-06-22T05:22:25;21.50;99.90
52275;DHT22;38228;50.940;4.024;2023-06-22T05:24:51;21.60;99.90
52275;DHT22;38228;50.940;4.024;2023-06-22T05:27:17;21.50;99.90
52275;DHT22;38228;50.940;4.024;2023-06-22T05:29:42;21.60;99.90
52275;DHT22;38228;50.940;4.024;2023-06-22T05:32:08;21.70;99.90
52275;DHT22;38228;50.940;4.024;2023-06-22T05:34:34;21.70;99.90
52275;DHT22;38228;50.940;4.024;2023-06-22T05:37:00;21.60;99.90
52275;DHT22;38228;50.940;4.024;2023-06-22T05:39:25;21.60;99.90
52275;DHT22;38228;50.940;4.024;2023-06-22T05:41:51;21.60;99.90
52275;DHT22;38228;50.940;4.024;2023-06-22T05:44:18;21.70;99.90
52275;DHT22;38228;50.940;4.024;2023-06-22T05:46:44;21.50;99.90
52275;DHT22;38228;50.940;4.024;2023-06-22T05:49:15;21.40;99.90
52275;DHT22;38228;50.940;4.024;2023-06-22T05:51:42;21.40;99.90
52275;DHT22;38228;50.940;4.024;2023-06-22T05:54:08;21.60;99.90
52275;DHT22;38228;50.940;4.024;2023-06-22T05:56:34;21.80;99.90
52275;DHT22;38228;50.940;4.024;2023-06-22T05:59:00;22.00;99.90
52275;DHT22;38228;50.940;4.024;2023-06-22T06:01:25;22.00;99.90
52275;DHT22;38228;50.940;4.024;2023-06-22T06:03:52;22.10;99.90
52275;DHT22;38228;50.940;4.024;2023-06-22T06:06:18;22.10;99.90
52275;DHT22;38228;50.940;4.024;2023-06-22T06:08:46;22.40;99.90
52275;DHT22;38228;50.940;4.024;2023-06-22T06:11:12;22.40;99.90
52275;DHT22;38228;50.940;4.024;2023-06-22T06:13:38;22.40;99.90
52275;DHT22;38228;50.940;4.024;2023-06-22T06:16:03;22.20;99.90
52275;DHT22;38228;50.940;4.024;2023-06-22T06:18:29;22.40;99.90
52275;DHT22;38228;50.940;4.024;2023-06-22T06:20:55;22.60;99.90
52275;DHT22;38228;50.940;4.024;2023-06-22T06:23:21;22.80;99.90
52275;DHT22;38228;50.940;4.024;2023-06-22T06:25:46;22.80;99.90
52275;DHT22;38228;50.940;4.024;2023-06-22T06:28:12;22.90;99.90
52275;DHT22;38228;50.940;4.024;2023-06-22T06:30:38;22.90;99.90
52275;DHT22;38228;50.940;4.024;2023-06-22T06:33:03;22.80;99.90
52275;DHT22;38228;50.940;4.024;2023-06-22T06:35:34;22.70;99.90
52275;DHT22;38228;50.940;4.024;2023-06-22T06:38:00;22.70;99.90
52275;DHT22;38228;50.940;4.024;2023-06-22T06:40:25;22.70;99.90
52275;DHT22;38228;50.940;4.024;2023-06-22T06:42:51;22.80;99.90
52275;DHT22;38228;50.940;4.024;2023-06-22T06:45:19;22.80;99.90
52275;DHT22;38228;50.940;4.024;2023-06-22T06:47:45;22.90;99.90
52275;DHT22;38228;50.940;4.024;2023-06-22T06:50:12;23.00;99.90
52275;DHT22;38228;50.940;4.024;2023-06-22T06:52:38;22.90;99.90
52275;DHT22;38228;50.940;4.024;2023-06-22T06:55:04;23.00;99.90
52275;DHT22;38228;50.940;4.024;2023-06-22T06:57:36;23.00;99.90
52275;DHT22;38228;50.940;4.024;2023-06-22T07:00:04;22.90;99.90
52275;DHT22;38228;50.940;4.024;2023-06-22T07:02:35;22.70;99.90
52275;DHT22;38228;50.940;4.024;2023-06-22T07:05:01;22.70;99.90
52275;DHT22;38228;50.940;4.024;2023-06-22T07:07:29;22.70;99.90
52275;DHT22;38228;50.940;4.024;2023-06-22T07:09:54;22.70;99.90
52275;DHT22;38228;50.940;4.024;2023-06-22T07:12:20;22.60;99.90
52275;DHT22;38228;50.940;4.024;2023-06-22T07:14:46;22.90;99.90
52275;DHT22;38228;50.940;4.024;2023-06-22T07:17:12;22.90;99.90
52275;DHT22;38228;50.940;4.024;2023-06-22T07:19:37;23.00;99.90
52275;DHT22;38228;50.940;4.024;2023-06-22T07:22:04;22.90;99.90
52275;DHT22;38228;50.940;4.024;2023-06-22T07:24:30;22.90;99.90
52275;DHT22;38228;50.940;4.024;2023-06-22T07:26:56;23.00;99.90
52275;DHT22;38228;50.940;4.024;2023-06-22T07:29:23;22.90;99.90
52275;DHT22;38228;50.940;4.024;2023-06-22T07:31:50;23.00;99.90
52275;DHT22;38228;50.940;4.024;2023-06-22T07:34:17;23.00;99.90
52275;DHT22;38228;50.940;4.024;2023-06-22T07:36:43;22.70;99.90
52275;DHT22;38228;50.940;4.024;2023-06-22T07:39:09;22.60;99.90
52275;DHT22;38228;50.940;4.024;2023-06-22T07:41:35;22.50;99.90
52275;DHT22;38228;50.940;4.024;2023-06-22T07:44:02;22.50;99.90
52275;DHT22;38228;50.940;4.024;2023-06-22T07:46:28;22.50;99.90
52275;DHT22;38228;50.940;4.024;2023-06-22T07:48:56;22.50;99.90
52275;DHT22;38228;50.940;4.024;2023-06-22T07:51:22;22.50;99.90
52275;DHT22;38228;50.940;4.024;2023-06-22T07:53:48;22.30;99.90
52275;DHT22;38228;50.940;4.024;2023-06-22T07:56:14;22.30;99.90
52275;DHT22;38228;50.940;4.024;2023-06-22T07:58:45;22.30;99.90
52275;DHT22;38228;50.940;4.024;2023-06-22T08:01:12;22.30;99.90
52275;DHT22;38228;50.940;4.024;2023-06-22T08:03:37;22.20;99.90
52275;DHT22;38228;50.940;4.024;2023-06-22T08:06:05;22.20;99.90
52275;DHT22;38228;50.940;4.024;2023-06-22T08:08:31;22.40;99.90
52275;DHT22;38228;50.940;4.024;2023-06-22T08:10:57;22.50;99.90
52275;DHT22;38228;50.940;4.024;2023-06-22T08:13:23;22.50;99.90
52275;DHT22;38228;50.940;4.024;2023-06-22T08:15:48;22.40;99.90
52275;DHT22;38228;50.940;4.024;2023-06-22T08:18:14;22.30;99.90
52275;DHT22;38228;50.940;4.024;2023-06-22T08:20:41;22.60;99.90
52275;DHT22;38228;50.940;4.024;2023-06-22T08:23:07;22.80;99.90
52275;DHT22;38228;50.940;4.024;2023-06-22T08:25:34;22.60;99.90
52275;DHT22;38228;50.940;4.024;2023-06-22T08:28:00;22.80;99.90
52275;DHT22;38228;50.940;4.024;2023-06-22T08:30:26;22.90;99.90
52275;DHT22;38228;50.940;4.024;2023-06-22T08:32:52;22.80;99.90
52275;DHT22;38228;50.940;4.024;2023-06-22T08:35:19;22.80;99.90
52275;DHT22;38228;50.940;4.024;2023-06-22T08:37:45;22.70;99.90
52275;DHT22;38228;50.940;4.024;2023-06-22T08:40:17;22.50;99.90
52275;DHT22;38228;50.940;4.024;2023-06-22T08:42:44;22.40;99.90
52275;DHT22;38228;50.940;4.024;2023-06-22T08:45:10;22.40;99.90
52275;DHT22;38228;50.940;4.024;2023-06-22T08:47:36;22.40;99.90
52275;DHT22;38228;50.940;4.024;2023-06-22T08:50:01;22.50;99.90
52275;DHT22;38228;50.940;4.024;2023-06-22T08:52:28;22.60;99.90
52275;DHT22;38228;50.940;4.024;2023-06-22T08:54:54;22.50;99.90
52275;DHT22;38228;50.940;4.024;2023-06-22T08:57:21;22.30;99.90
52275;DHT22;38228;50.940;4.024;2023-06-22T08:59:46;22.00;99.90
52275;DHT22;38228;50.940;4.024;2023-06-22T09:02:12;21.90;99.90
52275;DHT22;38228;50.940;4.024;2023-06-22T09:04:38;22.00;99.90
52275;DHT22;38228;50.940;4.024;2023-06-22T09:07:04;21.90;99.90
52275;DHT22;38228;50.940;4.024;2023-06-22T09:09:29;22.20;99.90
52275;DHT22;38228;50.940;4.024;2023-06-22T09:11:55;22.30;99.90
52275;DHT22;38228;50.940;4.024;2023-06-22T09:14:21;22.20;99.90
52275;DHT22;38228;50.940;4.024;2023-06-22T09:16:47;22.10;99.90
52275;DHT22;38228;50.940;4.024;2023-06-22T09:19:12;22.10;99.90
52275;DHT22;38228;50.940;4.024;2023-06-22T09:21:38;22.00;99.90
52275;DHT22;38228;50.940;4.024;2023-06-22T09:24:04;21.90;99.90
52275;DHT22;38228;50.940;4.024;2023-06-22T09:26:30;21.90;99.90
52275;DHT22;38228;50.940;4.024;2023-06-22T09:28:56;21.80;99.90
52275;DHT22;38228;50.940;4.024;2023-06-22T09:31:21;21.90;99.90
52275;DHT22;38228;50.940;4.024;2023-06-22T09:33:52;21.90;99.90
52275;DHT22;38228;50.940;4.024;2023-06-22T09:36:18;21.80;99.90
52275;DHT22;38228;50.940;4.024;2023-06-22T09:38:44;21.80;99.90
52275;DHT22;38228;50.940;4.024;2023-06-22T09:41:09;21.80;99.90
52275;DHT22;38228;50.940;4.024;2023-06-22T09:43:35;21.80;99.90
52275;DHT22;38228;50.940;4.024;2023-06-22T09:46:02;21.80;99.90
52275;DHT22;38228;50.940;4.024;2023-06-22T09:48:29;21.70;99.90
52275;DHT22;38228;50.940;4.024;2023-06-22T09:50:57;21.60;99.90
52275;DHT22;38228;50.940;4.024;2023-06-22T09:53:23;21.50;99.90
52275;DHT22;38228;50.940;4.024;2023-06-22T09:55:48;21.60;99.90
52275;DHT22;38228;50.940;4.024;2023-06-22T09:58:14;21.50;99.90
52275;DHT22;38228;50.940;4.024;2023-06-22T10:00:40;21.40;99.90
52275;DHT22;38228;50.940;4.024;2023-06-22T10:03:07;21.20;99.90
52275;DHT22;38228;50.940;4.024;2023-06-22T10:05:33;21.20;99.90
52275;DHT22;38228;50.940;4.024;2023-06-22T10:07:58;21.10;99.90
52275;DHT22;38228;50.940;4.024;2023-06-22T10:10:24;20.90;99.90
52275;DHT22;38228;50.940;4.024;2023-06-22T10:12:57;20.90;99.90
52275;DHT22;38228;50.940;4.024;2023-06-22T10:15:23;20.90;99.90
52275;DHT22;38228;50.940;4.024;2023-06-22T10:17:49;20.90;99.90
52275;DHT22;38228;50.940;4.024;2023-06-22T10:20:15;20.90;99.90
52275;DHT22;38228;50.940;4.024;2023-06-22T10:22:43;21.00;99.90
52275;DHT22;38228;50.940;4.024;2023-06-22T10:25:12;21.10;99.90
52275;DHT22;38228;50.940;4.024;2023-06-22T10:27:38;21.00;99.90
52275;DHT22;38228;50.940;4.024;2023-06-22T10:30:10;21.00;99.90
52275;DHT22;38228;50.940;4.024;2023-06-22T10:32:38;21.30;99.90
52275;DHT22;38228;50.940;4.024;2023-06-22T10:35:05;21.70;99.90
52275;DHT22;38228;50.940;4.024;2023-06-22T10:37:31;21.80;99.90
52275;DHT22;38228;50.940;4.024;2023-06-22T10:39:56;22.00;99.90
52275;DHT22;38228;50.940;4.024;2023-06-22T10:42:23;21.90;99.90
52275;DHT22;38228;50.940;4.024;2023-06-22T10:44:48;21.90;99.90
52275;DHT22;38228;50.940;4.024;2023-06-22T10:47:14;21.70;99.90
52275;DHT22;38228;50.940;4.024;2023-06-22T10:49:40;21.50;99.90
52275;DHT22;38228;50.940;4.024;2023-06-22T10:52:09;21.40;99.90
52275;DHT22;38228;50.940;4.024;2023-06-22T10:54:36;21.20;99.90
52275;DHT22;38228;50.940;4.024;2023-06-22T10:57:02;21.10;99.90
52275;DHT22;38228;50.940;4.024;2023-06-22T10:59:28;21.10;99.90
52275;DHT22;38228;50.940;4.024;2023-06-22T11:01:58;21.10;99.90
52275;DHT22;38228;50.940;4.024;2023-06-22T11:04:24;20.90;99.90
52275;DHT22;38228;50.940;4.024;2023-06-22T11:06:50;20.70;99.90
52275;DHT22;38228;50.940;4.024;2023-06-22T11:09:17;20.50;99.90
52275;DHT22;38228;50.940;4.024;2023-06-22T11:11:52;20.20;99.90
52275;DHT22;38228;50.940;4.024;2023-06-22T11:14:19;20.00;99.90
52275;DHT22;38228;50.940;4.024;2023-06-22T11:16:45;20.00;99.90
52275;DHT22;38228;50.940;4.024;2023-06-22T11:19:12;19.90;99.90
52275;DHT22;38228;50.940;4.024;2023-06-22T11:21:38;19.80;99.90
52275;DHT22;38228;50.940;4.024;2023-06-22T11:24:04;19.90;99.90
52275;DHT22;38228;50.940;4.024;2023-06-22T11:26:30;19.80;99.90
52275;DHT22;38228;50.940;4.024;2023-06-22T11:28:57;20.00;99.90
52275;DHT22;38228;50.940;4.024;2023-06-22T11:31:23;20.10;99.90
52275;DHT22;38228;50.940;4.024;2023-06-22T11:33:49;20.20;99.90
52275;DHT22;38228;50.940;4.024;2023-06-22T11:36:15;20.30;99.90
52275;DHT22;38228;50.940;4.024;2023-06-22T11:38:41;20.40;99.90
52275;DHT22;38228;50.940;4.024;2023-06-22T11:41:08;20.50;99.90
52275;DHT22;38228;50.940;4.024;2023-06-22T11:43:35;20.50;99.90
52275;DHT22;38228;50.940;4.024;2023-06-22T11:46:03;20.30;99.90
52275;DHT22;38228;50.940;4.024;2023-06-22T11:48:28;20.40;99.90
52275;DHT22;38228;50.940;4.024;2023-06-22T11:50:55;20.40;99.90
52275;DHT22;38228;50.940;4.024;2023-06-22T11:53:21;20.40;99.90
52275;DHT22;38228;50.940;4.024;2023-06-22T11:55:47;20.30;99.90
52275;DHT22;38228;50.940;4.024;2023-06-22T11:58:14;20.10;99.90
52275;DHT22;38228;50.940;4.024;2023-06-22T12:00:40;19.80;99.90
52275;DHT22;38228;50.940;4.024;2023-06-22T12:03:07;19.90;99.90
52275;DHT22;38228;50.940;4.024;2023-06-22T12:05:32;20.10;99.90
52275;DHT22;38228;50.940;4.024;2023-06-22T12:07:58;20.50;99.90
52275;DHT22;38228;50.940;4.024;2023-06-22T12:10:26;20.60;99.90
52275;DHT22;38228;50.940;4.024;2023-06-22T12:12:54;20.20;99.90
52275;DHT22;38228;50.940;4.024;2023-06-22T12:15:19;20.20;99.90
52275;DHT22;38228;50.940;4.024;2023-06-22T12:17:45;20.00;99.90
52275;DHT22;38228;50.940;4.024;2023-06-22T12:20:11;20.20;99.90
52275;DHT22;38228;50.940;4.024;2023-06-22T12:22:37;20.60;99.90
52275;DHT22;38228;50.940;4.024;2023-06-22T12:25:03;20.40;99.90
52275;DHT22;38228;50.940;4.024;2023-06-22T12:27:29;20.00;99.90
52275;DHT22;38228;50.940;4.024;2023-06-22T12:29:56;19.90;99.90
52275;DHT22;38228;50.940;4.024;2023-06-22T12:32:22;19.80;99.90
52275;DHT22;38228;50.940;4.024;2023-06-22T12:34:47;19.90;99.90
52275;DHT22;38228;50.940;4.024;2023-06-22T12:37:13;19.90;99.90
52275;DHT22;38228;50.940;4.024;2023-06-22T12:39:40;19.80;99.90
52275;DHT22;38228;50.940;4.024;2023-06-22T12:42:06;19.70;99.90
52275;DHT22;38228;50.940;4.024;2023-06-22T12:44:34;19.70;99.90
52275;DHT22;38228;50.940;4.024;2023-06-22T12:47:00;19.70;99.90
52275;DHT22;38228;50.940;4.024;2023-06-22T12:49:26;19.70;99.90
52275;DHT22;38228;50.940;4.024;2023-06-22T12:51:52;19.80;99.90
52275;DHT22;38228;50.940;4.024;2023-06-22T12:54:17;19.60;99.90
52275;DHT22;38228;50.940;4.024;2023-06-22T12:56:43;19.40;99.90
52275;DHT22;38228;50.940;4.024;2023-06-22T12:59:10;19.30;99.90
52275;DHT22;38228;50.940;4.024;2023-06-22T13:01:36;19.10;99.90
52275;DHT22;38228;50.940;4.024;2023-06-22T13:04:03;19.10;99.90
52275;DHT22;38228;50.940;4.024;2023-06-22T13:06:29;19.30;99.90
52275;DHT22;38228;50.940;4.024;2023-06-22T13:08:55;19.60;99.90
52275;DHT22;38228;50.940;4.024;2023-06-22T13:11:21;19.80;99.90
52275;DHT22;38228;50.940;4.024;2023-06-22T13:13:47;19.90;99.90
52275;DHT22;38228;50.940;4.024;2023-06-22T13:16:13;19.80;99.90
52275;DHT22;38228;50.940;4.024;2023-06-22T13:18:39;20.00;99.90
52275;DHT22;38228;50.940;4.024;2023-06-22T13:21:05;20.30;99.90
52275;DHT22;38228;50.940;4.024;2023-06-22T13:23:30;20.30;99.90
52275;DHT22;38228;50.940;4.024;2023-06-22T13:25:57;20.40;99.90
52275;DHT22;38228;50.940;4.024;2023-06-22T13:28:23;20.60;99.90
52275;DHT22;38228;50.940;4.024;2023-06-22T13:30:49;20.80;99.90
52275;DHT22;38228;50.940;4.024;2023-06-22T13:33:15;20.70;99.90
52275;DHT22;38228;50.940;4.024;2023-06-22T13:35:41;20.40;99.90
52275;DHT22;38228;50.940;4.024;2023-06-22T13:38:09;20.00;99.90
52275;DHT22;38228;50.940;4.024;2023-06-22T13:40:36;20.00;99.90
52275;DHT22;38228;50.940;4.024;2023-06-22T13:43:05;20.00;99.90
52275;DHT22;38228;50.940;4.024;2023-06-22T13:45:31;19.90;99.90
52275;DHT22;38228;50.940;4.024;2023-06-22T13:47:57;20.20;99.90
52275;DHT22;38228;50.940;4.024;2023-06-22T13:50:23;20.30;99.90
52275;DHT22;38228;50.940;4.024;2023-06-22T13:52:48;20.40;99.90
52275;DHT22;38228;50.940;4.024;2023-06-22T13:55:14;20.70;99.90
52275;DHT22;38228;50.940;4.024;2023-06-22T13:57:40;20.50;99.90
52275;DHT22;38228;50.940;4.024;2023-06-22T14:00:07;20.70;99.90
52275;DHT22;38228;50.940;4.024;2023-06-22T14:02:34;20.80;99.90
52275;DHT22;38228;50.940;4.024;2023-06-22T14:05:00;20.50;99.90
52275;DHT22;38228;50.940;4.024;2023-06-22T14:07:26;20.30;99.90
52275;DHT22;38228;50.940;4.024;2023-06-22T14:09:51;20.30;99.90
52275;DHT22;38228;50.940;4.024;2023-06-22T14:12:17;20.20;99.90
52275;DHT22;38228;50.940;4.024;2023-06-22T14:14:43;20.30;99.90
52275;DHT22;38228;50.940;4.024;2023-06-22T14:17:09;20.50;99.90
52275;DHT22;38228;50.940;4.024;2023-06-22T14:19:35;20.10;99.90
52275;DHT22;38228;50.940;4.024;2023-06-22T14:22:02;20.00;99.90
52275;DHT22;38228;50.940;4.024;2023-06-22T14:24:28;19.80;99.90
52275;DHT22;38228;50.940;4.024;2023-06-22T14:26:54;19.80;99.90
52275;DHT22;38228;50.940;4.024;2023-06-22T14:29:21;19.70;99.90
52275;DHT22;38228;50.940;4.024;2023-06-22T14:31:48;19.70;99.90
52275;DHT22;38228;50.940;4.024;2023-06-22T14:34:14;19.70;99.90
52275;DHT22;38228;50.940;4.024;2023-06-22T14:36:40;20.00;99.90
52275;DHT22;38228;50.940;4.024;2023-06-22T14:39:05;20.30;99.90
52275;DHT22;38228;50.940;4.024;2023-06-22T14:41:31;20.70;99.90
52275;DHT22;38228;50.940;4.024;2023-06-22T14:43:57;20.40;99.90
52275;DHT22;38228;50.940;4.024;2023-06-22T14:46:23;20.60;99.90
52275;DHT22;38228;50.940;4.024;2023-06-22T14:48:49;20.70;99.90
52275;DHT22;38228;50.940;4.024;2023-06-22T14:51:15;20.70;99.90
52275;DHT22;38228;50.940;4.024;2023-06-22T14:53:41;20.60;99.90
52275;DHT22;38228;50.940;4.024;2023-06-22T14:56:07;20.30;99.90
52275;DHT22;38228;50.940;4.024;2023-06-22T14:58:33;20.20;99.90
52275;DHT22;38228;50.940;4.024;2023-06-22T15:01:01;20.50;99.90
52275;DHT22;38228;50.940;4.024;2023-06-22T15:03:27;20.70;99.90
52275;DHT22;38228;50.940;4.024;2023-06-22T15:05:54;20.70;99.90
52275;DHT22;38228;50.940;4.024;2023-06-22T15:08:21;20.80;99.90
52275;DHT22;38228;50.940;4.024;2023-06-22T15:10:46;20.70;99.90
52275;DHT22;38228;50.940;4.024;2023-06-22T15:13:12;20.70;99.90
52275;DHT22;38228;50.940;4.024;2023-06-22T15:15:38;20.40;99.90
52275;DHT22;38228;50.940;4.024;2023-06-22T15:18:04;20.10;99.90
52275;DHT22;38228;50.940;4.024;2023-06-22T15:20:30;20.10;99.90
52275;DHT22;38228;50.940;4.024;2023-06-22T15:22:57;20.10;99.90
52275;DHT22;38228;50.940;4.024;2023-06-22T15:25:23;20.00;99.90
52275;DHT22;38228;50.940;4.024;2023-06-22T15:27:49;19.80;99.90
52275;DHT22;38228;50.940;4.024;2023-06-22T15:30:15;19.80;99.90
52275;DHT22;38228;50.940;4.024;2023-06-22T15:32:44;19.90;99.90